sensor_id;sensor_type;location;lat;lon;timestamp;P1;durP1;ratioP1;P2;durP2;ratioP2
26062;SDS011;13837;48.562;12.108;2024-03-17T00:00:04;33.30;;;31.00;;
26062;SDS011;13837;48.562;12.108;2024-03-17T00:02:31;33.05;;;30.95;;
26062;SDS011;13837;48.562;12.108;2024-03-17T00:04:57;33.22;;;31.13;;
26062;SDS011;13837;48.562;12.108;2024-03-17T00:07:23;32.88;;;31.00;;
26062;SDS011;13837;48.562;12.108;2024-03-17T00:09:49;34.50;;;32.20;;
26062;SDS011;13837;48.562;12.108;2024-03-17T00:12:15;33.35;;;31.17;;
26062;SDS011;13837;48.562;12.108;2024-03-17T00:14:41;35.45;;;33.05;;
26062;SDS011;13837;48.562;12.108;2024-03-17T00:17:08;34.67;;;32.42;;
26062;SDS011;13837;48.562;12.108;2024-03-17T00:19:34;35.38;;;33.00;;
26062;SDS011;13837;48.562;12.108;2024-03-17T00:22:01;34.33;;;32.20;;
26062;SDS011;13837;48.562;12.108;2024-03-17T00:24:28;33.83;;;31.63;;
26062;SDS011;13837;48.562;12.108;2024-03-17T00:27:00;35.45;;;33.10;;
26062;SDS011;13837;48.562;12.108;2024-03-17T00:29:26;34.30;;;31.83;;
26062;SDS011;13837;48.562;12.108;2024-03-17T00:31:53;35.40;;;33.10;;
26062;SDS011;13837;48.562;12.108;2024-03-17T00:34:19;34.55;;;32.03;;
26062;SDS011;13837;48.562;12.108;2024-03-17T00:36:45;33.40;;;31.10;;
26062;SDS011;13837;48.562;12.108;2024-03-17T00:39:12;32.33;;;30.27;;
26062;SDS011;13837;48.562;12.108;2024-03-17T00:41:39;33.72;;;31.60;;
26062;SDS011;13837;48.562;12.108;2024-03-17T00:44:05;32.00;;;29.80;;
26062;SDS011;13837;48.562;12.108;2024-03-17T00:46:31;32.72;;;30.52;;
26062;SDS011;13837;48.562;12.108;2024-03-17T00:48:58;32.17;;;30.00;;
26062;SDS011;13837;48.562;12.108;2024-03-17T00:53:53;34.28;;;31.88;;
26062;SDS011;13837;48.562;12.108;2024-03-17T00:56:21;33.33;;;31.13;;
26062;SDS011;13837;48.562;12.108;2024-03-17T00:58:47;33.85;;;31.40;;
26062;SDS011;13837;48.562;12.108;2024-03-17T01:01:16;34.53;;;32.33;;
26062;SDS011;13837;48.562;12.108;2024-03-17T01:03:44;35.10;;;32.50;;
26062;SDS011;13837;48.562;12.108;2024-03-17T01:06:10;33.75;;;31.52;;
26062;SDS011;13837;48.562;12.108;2024-03-17T01:08:36;33.20;;;31.00;;
26062;SDS011;13837;48.562;12.108;2024-03-17T01:11:02;33.10;;;31.02;;
26062;SDS011;13837;48.562;12.108;2024-03-17T01:13:28;34.05;;;31.73;;
26062;SDS011;13837;48.562;12.108;2024-03-17T01:15:55;33.30;;;31.05;;
26062;SDS011;13837;48.562;12.108;2024-03-17T01:18:21;33.58;;;31.38;;
26062;SDS011;13837;48.562;12.108;2024-03-17T01:20:48;34.22;;;32.03;;
26062;SDS011;13837;48.562;12.108;2024-03-17T01:23:14;34.65;;;32.25;;
26062;SDS011;13837;48.562;12.108;2024-03-17T01:25:40;34.60;;;32.40;;
26062;SDS011;13837;48.562;12.108;2024-03-17T01:28:06;33.70;;;31.45;;
26062;SDS011;13837;48.562;12.108;2024-03-17T01:30:32;36.67;;;34.10;;
26062;SDS011;13837;48.562;12.108;2024-03-17T01:32:59;36.20;;;33.40;;
26062;SDS011;13837;48.562;12.108;2024-03-17T01:35:26;37.08;;;34.13;;
26062;SDS011;13837;48.562;12.108;2024-03-17T01:37:52;38.67;;;35.42;;
26062;SDS011;13837;48.562;12.108;2024-03-17T01:40:18;37.67;;;34.53;;
26062;SDS011;13837;48.562;12.108;2024-03-17T01:42:44;37.38;;;34.38;;
26062;SDS011;13837;48.562;12.108;2024-03-17T01:47:42;34.65;;;32.20;;
26062;SDS011;13837;48.562;12.108;2024-03-17T01:50:09;40.08;;;36.47;;
26062;SDS011;13837;48.562;12.108;2024-03-17T01:52:37;43.13;;;38.50;;
26062;SDS011;13837;48.562;12.108;2024-03-17T01:55:03;41.55;;;37.58;;
26062;SDS011;13837;48.562;12.108;2024-03-17T01:57:29;37.10;;;33.63;;
26062;SDS011;13837;48.562;12.108;2024-03-17T01:59:56;35.97;;;32.90;;
26062;SDS011;13837;48.562;12.108;2024-03-17T02:02:22;34.00;;;31.60;;
26062;SDS011;13837;48.562;12.108;2024-03-17T02:04:49;34.35;;;32.05;;
26062;SDS011;13837;48.562;12.108;2024-03-17T02:07:15;34.28;;;31.88;;
26062;SDS011;13837;48.562;12.108;2024-03-17T02:09:41;34.92;;;32.53;;
26062;SDS011;13837;48.562;12.108;2024-03-17T02:12:08;34.80;;;32.65;;
26062;SDS011;13837;48.562;12.108;2024-03-17T02:14:35;35.38;;;33.08;;
26062;SDS011;13837;48.562;12.108;2024-03-17T02:17:02;35.42;;;33.03;;
26062;SDS011;13837;48.562;12.108;2024-03-17T02:19:29;35.05;;;32.72;;
26062;SDS011;13837;48.562;12.108;2024-03-17T02:21:55;35.00;;;32.65;;
26062;SDS011;13837;48.562;12.108;2024-03-17T02:24:21;37.05;;;34.55;;
26062;SDS011;13837;48.562;12.108;2024-03-17T02:26:47;35.60;;;33.17;;
26062;SDS011;13837;48.562;12.108;2024-03-17T02:29:13;35.10;;;32.88;;
26062;SDS011;13837;48.562;12.108;2024-03-17T02:31:39;35.72;;;33.42;;
26062;SDS011;13837;48.562;12.108;2024-03-17T02:34:06;36.42;;;34.13;;
26062;SDS011;13837;48.562;12.108;2024-03-17T02:36:32;35.28;;;33.05;;
26062;SDS011;13837;48.562;12.108;2024-03-17T02:38:58;35.42;;;33.10;;
26062;SDS011;13837;48.562;12.108;2024-03-17T02:41:43;34.45;;;32.25;;
26062;SDS011;13837;48.562;12.108;2024-03-17T02:44:09;34.53;;;32.33;;
26062;SDS011;13837;48.562;12.108;2024-03-17T02:46:36;34.40;;;32.10;;
26062;SDS011;13837;48.562;12.108;2024-03-17T02:49:03;35.40;;;32.72;;
26062;SDS011;13837;48.562;12.108;2024-03-17T02:51:30;34.60;;;32.45;;
26062;SDS011;13837;48.562;12.108;2024-03-17T02:53:56;33.75;;;31.75;;
26062;SDS011;13837;48.562;12.108;2024-03-17T02:56:24;36.50;;;34.10;;
26062;SDS011;13837;48.562;12.108;2024-03-17T02:58:51;35.63;;;33.40;;
26062;SDS011;13837;48.562;12.108;2024-03-17T03:01:17;35.72;;;33.42;;
26062;SDS011;13837;48.562;12.108;2024-03-17T03:03:44;35.33;;;33.03;;
26062;SDS011;13837;48.562;12.108;2024-03-17T03:06:10;35.38;;;33.00;;
26062;SDS011;13837;48.562;12.108;2024-03-17T03:08:39;36.45;;;33.85;;
26062;SDS011;13837;48.562;12.108;2024-03-17T03:11:09;37.35;;;34.85;;
26062;SDS011;13837;48.562;12.108;2024-03-17T03:13:40;36.25;;;33.75;;
26062;SDS011;13837;48.562;12.108;2024-03-17T03:16:08;36.85;;;34.03;;
26062;SDS011;13837;48.562;12.108;2024-03-17T03:18:35;35.17;;;32.88;;
26062;SDS011;13837;48.562;12.108;2024-03-17T03:21:01;36.85;;;34.22;;
26062;SDS011;13837;48.562;12.108;2024-03-17T03:23:27;36.38;;;33.88;;
26062;SDS011;13837;48.562;12.108;2024-03-17T03:26:00;37.50;;;35.10;;
26062;SDS011;13837;48.562;12.108;2024-03-17T03:28:30;37.53;;;35.05;;
26062;SDS011;13837;48.562;12.108;2024-03-17T03:30:56;37.63;;;35.22;;
26062;SDS011;13837;48.562;12.108;2024-03-17T03:33:23;37.92;;;35.10;;
26062;SDS011;13837;48.562;12.108;2024-03-17T03:35:49;37.08;;;34.75;;
26062;SDS011;13837;48.562;12.108;2024-03-17T03:38:16;37.08;;;34.58;;
26062;SDS011;13837;48.562;12.108;2024-03-17T03:40:43;37.83;;;35.53;;
26062;SDS011;13837;48.562;12.108;2024-03-17T03:43:09;37.47;;;34.83;;
26062;SDS011;13837;48.562;12.108;2024-03-17T03:45:36;37.97;;;35.58;;
26062;SDS011;13837;48.562;12.108;2024-03-17T03:48:03;39.08;;;36.65;;
26062;SDS011;13837;48.562;12.108;2024-03-17T03:50:29;37.72;;;35.20;;
26062;SDS011;13837;48.562;12.108;2024-03-17T03:52:56;37.70;;;35.20;;
26062;SDS011;13837;48.562;12.108;2024-03-17T03:55:22;38.47;;;35.88;;
26062;SDS011;13837;48.562;12.108;2024-03-17T03:57:49;102.80;;;54.95;;
26062;SDS011;13837;48.562;12.108;2024-03-17T04:00:17;51.93;;;44.00;;
26062;SDS011;13837;48.562;12.108;2024-03-17T04:02:47;42.45;;;38.92;;
26062;SDS011;13837;48.562;12.108;2024-03-17T04:05:14;38.42;;;35.65;;
26062;SDS011;13837;48.562;12.108;2024-03-17T04:07:40;41.10;;;37.95;;
26062;SDS011;13837;48.562;12.108;2024-03-17T04:10:08;42.80;;;39.22;;
26062;SDS011;13837;48.562;12.108;2024-03-17T04:12:34;46.55;;;42.35;;
26062;SDS011;13837;48.562;12.108;2024-03-17T04:15:00;44.67;;;40.80;;
26062;SDS011;13837;48.562;12.108;2024-03-17T04:17:26;42.55;;;38.95;;
26062;SDS011;13837;48.562;12.108;2024-03-17T04:19:53;39.88;;;37.05;;
26062;SDS011;13837;48.562;12.108;2024-03-17T04:22:19;39.53;;;36.72;;
26062;SDS011;13837;48.562;12.108;2024-03-17T04:24:47;38.17;;;35.67;;
26062;SDS011;13837;48.562;12.108;2024-03-17T04:27:18;39.88;;;36.88;;
26062;SDS011;13837;48.562;12.108;2024-03-17T04:29:46;39.22;;;36.53;;
26062;SDS011;13837;48.562;12.108;2024-03-17T04:32:15;38.15;;;35.55;;
26062;SDS011;13837;48.562;12.108;2024-03-17T04:34:41;38.05;;;35.53;;
26062;SDS011;13837;48.562;12.108;2024-03-17T04:37:10;44.53;;;41.92;;
26062;SDS011;13837;48.562;12.108;2024-03-17T04:39:38;38.05;;;35.78;;
26062;SDS011;13837;48.562;12.108;2024-03-17T04:42:04;39.35;;;36.88;;
26062;SDS011;13837;48.562;12.108;2024-03-17T04:44:31;38.40;;;35.72;;
26062;SDS011;13837;48.562;12.108;2024-03-17T04:46:57;38.25;;;35.83;;
26062;SDS011;13837;48.562;12.108;2024-03-17T04:49:23;38.33;;;35.83;;
26062;SDS011;13837;48.562;12.108;2024-03-17T04:51:49;39.05;;;36.55;;
26062;SDS011;13837;48.562;12.108;2024-03-17T04:54:15;38.97;;;36.58;;
26062;SDS011;13837;48.562;12.108;2024-03-17T04:56:41;38.47;;;36.08;;
26062;SDS011;13837;48.562;12.108;2024-03-17T04:59:07;39.80;;;37.20;;
26062;SDS011;13837;48.562;12.108;2024-03-17T05:01:34;39.60;;;36.67;;
26062;SDS011;13837;48.562;12.108;2024-03-17T05:04:04;39.30;;;36.67;;
26062;SDS011;13837;48.562;12.108;2024-03-17T05:08:56;40.17;;;37.38;;
26062;SDS011;13837;48.562;12.108;2024-03-17T05:11:23;40.60;;;37.78;;
26062;SDS011;13837;48.562;12.108;2024-03-17T05:13:49;42.10;;;39.30;;
26062;SDS011;13837;48.562;12.108;2024-03-17T05:16:15;41.97;;;39.17;;
26062;SDS011;13837;48.562;12.108;2024-03-17T05:18:41;40.30;;;37.45;;
26062;SDS011;13837;48.562;12.108;2024-03-17T05:21:08;41.47;;;38.50;;
26062;SDS011;13837;48.562;12.108;2024-03-17T05:23:35;41.30;;;38.33;;
26062;SDS011;13837;48.562;12.108;2024-03-17T05:26:01;41.50;;;38.40;;
26062;SDS011;13837;48.562;12.108;2024-03-17T05:28:29;39.90;;;37.00;;
26062;SDS011;13837;48.562;12.108;2024-03-17T05:30:56;41.25;;;38.38;;
26062;SDS011;13837;48.562;12.108;2024-03-17T05:33:22;40.60;;;37.58;;
26062;SDS011;13837;48.562;12.108;2024-03-17T05:35:52;40.88;;;38.00;;
26062;SDS011;13837;48.562;12.108;2024-03-17T05:38:22;39.10;;;36.47;;
26062;SDS011;13837;48.562;12.108;2024-03-17T05:40:55;39.20;;;36.28;;
26062;SDS011;13837;48.562;12.108;2024-03-17T05:43:25;39.35;;;36.35;;
26062;SDS011;13837;48.562;12.108;2024-03-17T05:45:58;38.05;;;35.28;;
26062;SDS011;13837;48.562;12.108;2024-03-17T05:48:25;38.35;;;35.45;;
26062;SDS011;13837;48.562;12.108;2024-03-17T05:50:51;38.25;;;35.63;;
26062;SDS011;13837;48.562;12.108;2024-03-17T05:53:17;39.33;;;36.42;;
26062;SDS011;13837;48.562;12.108;2024-03-17T05:55:43;39.15;;;36.25;;
26062;SDS011;13837;48.562;12.108;2024-03-17T05:58:10;40.15;;;37.05;;
26062;SDS011;13837;48.562;12.108;2024-03-17T06:00:37;38.88;;;35.95;;
26062;SDS011;13837;48.562;12.108;2024-03-17T06:03:03;39.35;;;36.25;;
26062;SDS011;13837;48.562;12.108;2024-03-17T06:05:34;39.45;;;36.33;;
26062;SDS011;13837;48.562;12.108;2024-03-17T06:08:00;38.70;;;35.78;;
26062;SDS011;13837;48.562;12.108;2024-03-17T06:10:28;39.20;;;36.25;;
26062;SDS011;13837;48.562;12.108;2024-03-17T06:12:55;38.75;;;35.90;;
26062;SDS011;13837;48.562;12.108;2024-03-17T06:15:21;38.35;;;35.35;;
26062;SDS011;13837;48.562;12.108;2024-03-17T06:17:48;38.08;;;35.00;;
26062;SDS011;13837;48.562;12.108;2024-03-17T06:20:17;39.17;;;36.30;;
26062;SDS011;13837;48.562;12.108;2024-03-17T06:22:43;38.67;;;35.67;;
26062;SDS011;13837;48.562;12.108;2024-03-17T06:25:10;38.13;;;35.15;;
26062;SDS011;13837;48.562;12.108;2024-03-17T06:27:37;39.35;;;36.25;;
26062;SDS011;13837;48.562;12.108;2024-03-17T06:30:03;38.00;;;35.00;;
26062;SDS011;13837;48.562;12.108;2024-03-17T06:32:32;39.10;;;35.80;;
26062;SDS011;13837;48.562;12.108;2024-03-17T06:34:59;40.00;;;36.72;;
26062;SDS011;13837;48.562;12.108;2024-03-17T06:37:25;38.65;;;35.45;;
26062;SDS011;13837;48.562;12.108;2024-03-17T06:39:51;39.10;;;35.67;;
26062;SDS011;13837;48.562;12.108;2024-03-17T06:42:17;40.78;;;37.15;;
26062;SDS011;13837;48.562;12.108;2024-03-17T06:44:43;39.22;;;35.60;;
26062;SDS011;13837;48.562;12.108;2024-03-17T06:47:09;39.50;;;36.10;;
26062;SDS011;13837;48.562;12.108;2024-03-17T06:49:35;40.22;;;36.47;;
26062;SDS011;13837;48.562;12.108;2024-03-17T06:52:01;39.50;;;35.88;;
26062;SDS011;13837;48.562;12.108;2024-03-17T06:54:27;39.00;;;35.63;;
26062;SDS011;13837;48.562;12.108;2024-03-17T06:56:53;37.88;;;34.63;;
26062;SDS011;13837;48.562;12.108;2024-03-17T06:59:19;38.83;;;35.58;;
26062;SDS011;13837;48.562;12.108;2024-03-17T07:01:46;38.50;;;35.22;;
26062;SDS011;13837;48.562;12.108;2024-03-17T07:04:12;38.67;;;35.35;;
26062;SDS011;13837;48.562;12.108;2024-03-17T07:06:39;38.03;;;34.42;;
26062;SDS011;13837;48.562;12.108;2024-03-17T07:09:05;38.05;;;34.75;;
26062;SDS011;13837;48.562;12.108;2024-03-17T07:11:31;38.15;;;34.90;;
26062;SDS011;13837;48.562;12.108;2024-03-17T07:13:57;39.13;;;35.58;;
26062;SDS011;13837;48.562;12.108;2024-03-17T07:16:23;37.35;;;34.25;;
26062;SDS011;13837;48.562;12.108;2024-03-17T07:18:52;38.20;;;34.80;;
26062;SDS011;13837;48.562;12.108;2024-03-17T07:21:19;37.35;;;34.00;;
26062;SDS011;13837;48.562;12.108;2024-03-17T07:23:45;38.10;;;34.90;;
26062;SDS011;13837;48.562;12.108;2024-03-17T07:26:11;38.30;;;35.03;;
26062;SDS011;13837;48.562;12.108;2024-03-17T07:28:39;37.33;;;34.03;;
26062;SDS011;13837;48.562;12.108;2024-03-17T07:31:06;36.53;;;33.55;;
26062;SDS011;13837;48.562;12.108;2024-03-17T07:33:33;36.53;;;33.10;;
26062;SDS011;13837;48.562;12.108;2024-03-17T07:35:59;37.03;;;34.05;;
26062;SDS011;13837;48.562;12.108;2024-03-17T07:38:26;35.45;;;32.45;;
26062;SDS011;13837;48.562;12.108;2024-03-17T07:40:59;35.20;;;31.88;;
26062;SDS011;13837;48.562;12.108;2024-03-17T07:43:26;32.63;;;30.08;;
26062;SDS011;13837;48.562;12.108;2024-03-17T07:48:24;32.50;;;29.98;;
26062;SDS011;13837;48.562;12.108;2024-03-17T07:51:09;33.30;;;30.38;;
26062;SDS011;13837;48.562;12.108;2024-03-17T07:53:36;32.45;;;29.83;;
26062;SDS011;13837;48.562;12.108;2024-03-17T07:58:29;31.80;;;29.38;;
26062;SDS011;13837;48.562;12.108;2024-03-17T08:00:58;31.48;;;29.08;;
26062;SDS011;13837;48.562;12.108;2024-03-17T08:03:25;32.58;;;30.08;;
26062;SDS011;13837;48.562;12.108;2024-03-17T08:05:51;31.75;;;29.23;;
26062;SDS011;13837;48.562;12.108;2024-03-17T08:08:18;30.88;;;28.55;;
26062;SDS011;13837;48.562;12.108;2024-03-17T08:10:44;29.25;;;27.05;;
26062;SDS011;13837;48.562;12.108;2024-03-17T08:13:11;30.50;;;28.13;;
26062;SDS011;13837;48.562;12.108;2024-03-17T08:15:41;30.33;;;27.77;;
26062;SDS011;13837;48.562;12.108;2024-03-17T08:18:07;30.40;;;28.10;;
26062;SDS011;13837;48.562;12.108;2024-03-17T08:20:42;28.77;;;26.65;;
26062;SDS011;13837;48.562;12.108;2024-03-17T08:23:14;30.13;;;27.63;;
26062;SDS011;13837;48.562;12.108;2024-03-17T08:25:40;28.73;;;26.48;;
26062;SDS011;13837;48.562;12.108;2024-03-17T08:28:07;29.25;;;26.95;;
26062;SDS011;13837;48.562;12.108;2024-03-17T08:30:33;28.95;;;26.83;;
26062;SDS011;13837;48.562;12.108;2024-03-17T08:32:59;28.58;;;26.20;;
26062;SDS011;13837;48.562;12.108;2024-03-17T08:35:26;27.33;;;25.23;;
26062;SDS011;13837;48.562;12.108;2024-03-17T08:37:52;26.85;;;24.75;;
26062;SDS011;13837;48.562;12.108;2024-03-17T08:40:21;28.02;;;25.88;;
26062;SDS011;13837;48.562;12.108;2024-03-17T08:42:48;26.33;;;24.10;;
26062;SDS011;13837;48.562;12.108;2024-03-17T08:45:14;26.63;;;24.52;;
26062;SDS011;13837;48.562;12.108;2024-03-17T08:47:41;25.50;;;23.42;;
26062;SDS011;13837;48.562;12.108;2024-03-17T08:50:08;24.95;;;23.15;;
26062;SDS011;13837;48.562;12.108;2024-03-17T08:52:37;25.15;;;22.83;;
26062;SDS011;13837;48.562;12.108;2024-03-17T08:55:03;24.45;;;22.45;;
26062;SDS011;13837;48.562;12.108;2024-03-17T08:57:35;24.65;;;22.65;;
26062;SDS011;13837;48.562;12.108;2024-03-17T09:00:01;22.92;;;21.23;;
26062;SDS011;13837;48.562;12.108;2024-03-17T09:02:27;23.83;;;21.73;;
26062;SDS011;13837;48.562;12.108;2024-03-17T09:04:53;23.10;;;21.23;;
26062;SDS011;13837;48.562;12.108;2024-03-17T09:07:19;23.05;;;21.10;;
26062;SDS011;13837;48.562;12.108;2024-03-17T09:09:48;23.10;;;21.30;;
26062;SDS011;13837;48.562;12.108;2024-03-17T09:12:14;23.10;;;21.20;;
26062;SDS011;13837;48.562;12.108;2024-03-17T09:14:41;23.83;;;21.90;;
26062;SDS011;13837;48.562;12.108;2024-03-17T09:17:07;24.08;;;22.00;;
26062;SDS011;13837;48.562;12.108;2024-03-17T09:19:33;22.15;;;20.35;;
26062;SDS011;13837;48.562;12.108;2024-03-17T09:22:02;24.05;;;21.85;;
26062;SDS011;13837;48.562;12.108;2024-03-17T09:24:29;22.52;;;20.67;;
26062;SDS011;13837;48.562;12.108;2024-03-17T09:26:55;22.17;;;20.27;;
26062;SDS011;13837;48.562;12.108;2024-03-17T09:29:22;22.05;;;20.13;;
26062;SDS011;13837;48.562;12.108;2024-03-17T09:31:49;22.15;;;20.42;;
26062;SDS011;13837;48.562;12.108;2024-03-17T09:34:16;21.77;;;20.02;;
26062;SDS011;13837;48.562;12.108;2024-03-17T09:36:42;20.33;;;18.83;;
26062;SDS011;13837;48.562;12.108;2024-03-17T09:39:09;21.33;;;19.80;;
26062;SDS011;13837;48.562;12.108;2024-03-17T09:41:36;21.10;;;19.45;;
26062;SDS011;13837;48.562;12.108;2024-03-17T09:44:04;21.65;;;19.85;;
26062;SDS011;13837;48.562;12.108;2024-03-17T09:46:33;20.50;;;18.92;;
26062;SDS011;13837;48.562;12.108;2024-03-17T09:48:59;21.30;;;19.40;;
26062;SDS011;13837;48.562;12.108;2024-03-17T09:51:26;21.00;;;19.02;;
26062;SDS011;13837;48.562;12.108;2024-03-17T09:53:52;19.80;;;18.30;;
26062;SDS011;13837;48.562;12.108;2024-03-17T09:56:19;21.00;;;19.33;;
26062;SDS011;13837;48.562;12.108;2024-03-17T10:01:11;20.00;;;18.38;;
26062;SDS011;13837;48.562;12.108;2024-03-17T10:06:07;20.88;;;19.27;;
26062;SDS011;13837;48.562;12.108;2024-03-17T10:08:40;21.58;;;19.88;;
26062;SDS011;13837;48.562;12.108;2024-03-17T10:11:06;20.35;;;18.85;;
26062;SDS011;13837;48.562;12.108;2024-03-17T10:13:32;19.73;;;18.08;;
26062;SDS011;13837;48.562;12.108;2024-03-17T10:15:58;20.95;;;19.20;;
26062;SDS011;13837;48.562;12.108;2024-03-17T10:18:24;20.08;;;18.38;;
26062;SDS011;13837;48.562;12.108;2024-03-17T10:20:50;19.88;;;18.23;;
26062;SDS011;13837;48.562;12.108;2024-03-17T10:23:20;18.88;;;17.48;;
26062;SDS011;13837;48.562;12.108;2024-03-17T10:25:46;19.50;;;18.10;;
26062;SDS011;13837;48.562;12.108;2024-03-17T10:28:12;18.40;;;17.10;;
26062;SDS011;13837;48.562;12.108;2024-03-17T10:30:39;18.88;;;17.48;;
26062;SDS011;13837;48.562;12.108;2024-03-17T10:33:06;18.80;;;17.40;;
26062;SDS011;13837;48.562;12.108;2024-03-17T10:35:37;18.83;;;17.42;;
26062;SDS011;13837;48.562;12.108;2024-03-17T10:38:09;19.70;;;18.30;;
26062;SDS011;13837;48.562;12.108;2024-03-17T10:40:35;18.63;;;17.25;;
26062;SDS011;13837;48.562;12.108;2024-03-17T10:43:03;19.25;;;17.67;;
26062;SDS011;13837;48.562;12.108;2024-03-17T10:45:29;18.85;;;17.52;;
26062;SDS011;13837;48.562;12.108;2024-03-17T10:48:01;19.20;;;17.73;;
26062;SDS011;13837;48.562;12.108;2024-03-17T10:50:30;18.90;;;17.60;;
26062;SDS011;13837;48.562;12.108;2024-03-17T10:53:01;19.60;;;17.98;;
26062;SDS011;13837;48.562;12.108;2024-03-17T10:55:28;18.85;;;17.55;;
26062;SDS011;13837;48.562;12.108;2024-03-17T10:57:57;18.83;;;17.55;;
26062;SDS011;13837;48.562;12.108;2024-03-17T11:00:25;19.40;;;18.10;;
26062;SDS011;13837;48.562;12.108;2024-03-17T11:02:54;19.27;;;17.92;;
26062;SDS011;13837;48.562;12.108;2024-03-17T11:05:24;18.27;;;16.98;;
26062;SDS011;13837;48.562;12.108;2024-03-17T11:07:51;19.30;;;17.85;;
26062;SDS011;13837;48.562;12.108;2024-03-17T11:12:48;18.55;;;17.25;;
26062;SDS011;13837;48.562;12.108;2024-03-17T11:20:43;18.67;;;17.35;;
26062;SDS011;13837;48.562;12.108;2024-03-17T11:23:29;17.52;;;16.27;;
26062;SDS011;13837;48.562;12.108;2024-03-17T11:25:56;17.55;;;16.25;;
26062;SDS011;13837;48.562;12.108;2024-03-17T11:28:46;17.58;;;16.30;;
26062;SDS011;13837;48.562;12.108;2024-03-17T11:37:09;17.33;;;15.93;;
26062;SDS011;13837;48.562;12.108;2024-03-17T11:39:57;17.52;;;16.08;;
26062;SDS011;13837;48.562;12.108;2024-03-17T11:42:26;16.23;;;14.88;;
26062;SDS011;13837;48.562;12.108;2024-03-17T11:45:02;16.58;;;15.38;;
26062;SDS011;13837;48.562;12.108;2024-03-17T11:47:46;15.02;;;13.93;;
26062;SDS011;13837;48.562;12.108;2024-03-17T11:50:15;14.88;;;13.77;;
26062;SDS011;13837;48.562;12.108;2024-03-17T11:53:06;14.65;;;13.65;;
26062;SDS011;13837;48.562;12.108;2024-03-17T11:55:35;14.93;;;13.70;;
26062;SDS011;13837;48.562;12.108;2024-03-17T12:01:53;14.68;;;13.60;;
26062;SDS011;13837;48.562;12.108;2024-03-17T12:09:26;14.30;;;13.40;;
26062;SDS011;13837;48.562;12.108;2024-03-17T12:13:10;14.32;;;13.38;;
26062;SDS011;13837;48.562;12.108;2024-03-17T12:16:35;14.15;;;13.15;;
26062;SDS011;13837;48.562;12.108;2024-03-17T12:30:31;14.43;;;13.55;;
26062;SDS011;13837;48.562;12.108;2024-03-17T12:47:38;13.93;;;13.13;;
26062;SDS011;13837;48.562;12.108;2024-03-17T12:50:11;13.82;;;12.93;;
26062;SDS011;13837;48.562;12.108;2024-03-17T12:52:56;14.05;;;13.15;;
26062;SDS011;13837;48.562;12.108;2024-03-17T12:55:34;13.55;;;12.63;;
26062;SDS011;13837;48.562;12.108;2024-03-17T13:01:27;13.65;;;12.77;;
26062;SDS011;13837;48.562;12.108;2024-03-17T13:04:11;13.18;;;12.27;;
26062;SDS011;13837;48.562;12.108;2024-03-17T13:06:46;13.95;;;12.98;;
26062;SDS011;13837;48.562;12.108;2024-03-17T13:09:15;16.55;;;15.35;;
26062;SDS011;13837;48.562;12.108;2024-03-17T13:12:12;14.93;;;13.90;;
26062;SDS011;13837;48.562;12.108;2024-03-17T13:20:44;13.85;;;12.75;;
26062;SDS011;13837;48.562;12.108;2024-03-17T13:23:25;12.05;;;11.35;;
26062;SDS011;13837;48.562;12.108;2024-03-17T13:25:56;11.98;;;11.27;;
26062;SDS011;13837;48.562;12.108;2024-03-17T13:28:27;11.82;;;10.95;;
26062;SDS011;13837;48.562;12.108;2024-03-17T13:30:58;11.98;;;11.18;;
26062;SDS011;13837;48.562;12.108;2024-03-17T13:33:27;11.90;;;11.20;;
26062;SDS011;13837;48.562;12.108;2024-03-17T13:35:56;13.13;;;12.13;;
26062;SDS011;13837;48.562;12.108;2024-03-17T13:38:25;13.43;;;12.63;;
26062;SDS011;13837;48.562;12.108;2024-03-17T13:40:59;12.90;;;11.90;;
26062;SDS011;13837;48.562;12.108;2024-03-17T13:43:39;12.65;;;11.75;;
26062;SDS011;13837;48.562;12.108;2024-03-17T13:46:18;13.23;;;12.32;;
26062;SDS011;13837;48.562;12.108;2024-03-17T13:48:52;13.07;;;12.30;;
26062;SDS011;13837;48.562;12.108;2024-03-17T13:51:38;13.23;;;12.23;;
26062;SDS011;13837;48.562;12.108;2024-03-17T13:54:17;13.27;;;12.23;;
26062;SDS011;13837;48.562;12.108;2024-03-17T13:56:47;11.93;;;11.23;;
26062;SDS011;13837;48.562;12.108;2024-03-17T13:59:41;12.55;;;11.75;;
26062;SDS011;13837;48.562;12.108;2024-03-17T14:02:14;12.57;;;11.77;;
26062;SDS011;13837;48.562;12.108;2024-03-17T14:05:15;12.65;;;11.80;;
26062;SDS011;13837;48.562;12.108;2024-03-17T14:07:54;12.82;;;12.13;;
26062;SDS011;13837;48.562;12.108;2024-03-17T14:10:24;13.23;;;12.43;;
26062;SDS011;13837;48.562;12.108;2024-03-17T14:21:52;14.18;;;13.27;;
26062;SDS011;13837;48.562;12.108;2024-03-17T14:24:20;14.38;;;13.48;;
26062;SDS011;13837;48.562;12.108;2024-03-17T14:26:51;14.30;;;13.50;;
26062;SDS011;13837;48.562;12.108;2024-03-17T14:29:20;14.95;;;13.95;;
26062;SDS011;13837;48.562;12.108;2024-03-17T14:35:34;15.02;;;14.05;;
26062;SDS011;13837;48.562;12.108;2024-03-17T14:38:40;15.07;;;14.07;;
26062;SDS011;13837;48.562;12.108;2024-03-17T14:41:30;15.60;;;14.52;;
26062;SDS011;13837;48.562;12.108;2024-03-17T14:48:13;16.25;;;15.15;;
26062;SDS011;13837;48.562;12.108;2024-03-17T14:57:58;15.88;;;14.77;;
26062;SDS011;13837;48.562;12.108;2024-03-17T15:01:01;15.68;;;14.68;;
26062;SDS011;13837;48.562;12.108;2024-03-17T15:06:37;15.77;;;14.75;;
26062;SDS011;13837;48.562;12.108;2024-03-17T15:09:17;16.02;;;15.02;;
26062;SDS011;13837;48.562;12.108;2024-03-17T15:12:24;15.85;;;14.60;;
26062;SDS011;13837;48.562;12.108;2024-03-17T15:14:54;16.23;;;15.13;;
26062;SDS011;13837;48.562;12.108;2024-03-17T15:17:49;16.17;;;15.05;;
26062;SDS011;13837;48.562;12.108;2024-03-17T15:20:23;15.13;;;14.23;;
26062;SDS011;13837;48.562;12.108;2024-03-17T15:22:52;15.30;;;14.38;;
26062;SDS011;13837;48.562;12.108;2024-03-17T15:25:25;14.95;;;13.95;;
26062;SDS011;13837;48.562;12.108;2024-03-17T15:27:57;15.05;;;14.02;;
26062;SDS011;13837;48.562;12.108;2024-03-17T15:30:32;14.48;;;13.65;;
26062;SDS011;13837;48.562;12.108;2024-03-17T15:33:02;14.70;;;13.70;;
26062;SDS011;13837;48.562;12.108;2024-03-17T15:35:31;15.07;;;14.13;;
26062;SDS011;13837;48.562;12.108;2024-03-17T15:38:03;14.68;;;13.57;;
26062;SDS011;13837;48.562;12.108;2024-03-17T15:40:33;15.30;;;14.40;;
26062;SDS011;13837;48.562;12.108;2024-03-17T15:43:02;15.68;;;14.65;;
26062;SDS011;13837;48.562;12.108;2024-03-17T15:45:38;15.98;;;14.65;;
26062;SDS011;13837;48.562;12.108;2024-03-17T15:48:13;15.32;;;14.23;;
26062;SDS011;13837;48.562;12.108;2024-03-17T15:51:09;15.82;;;14.82;;
26062;SDS011;13837;48.562;12.108;2024-03-17T15:54:10;15.82;;;14.82;;
26062;SDS011;13837;48.562;12.108;2024-03-17T15:56:48;18.20;;;16.80;;
26062;SDS011;13837;48.562;12.108;2024-03-17T15:59:18;16.88;;;15.88;;
26062;SDS011;13837;48.562;12.108;2024-03-17T16:02:09;16.98;;;15.68;;
26062;SDS011;13837;48.562;12.108;2024-03-17T16:05:01;17.20;;;16.00;;